createdAt,value
2023-03-05T00:01:22.556Z,4.20
2023-03-05T00:03:49.248Z,4.20
2023-03-05T00:06:17.320Z,4.20
2023-03-05T00:08:44.151Z,4.20
2023-03-05T00:11:13.145Z,4.20
2023-03-05T00:13:40.273Z,4.20
2023-03-05T00:16:10.744Z,4.20
2023-03-05T00:18:38.491Z,4.20
2023-03-05T00:21:20.074Z,4.20
2023-03-05T00:23:47.542Z,4.20
2023-03-05T00:26:14.135Z,4.20
2023-03-05T00:28:40.847Z,4.20
2023-03-05T00:31:07.550Z,4.20
2023-03-05T00:33:36.516Z,4.20
2023-03-05T00:36:07.150Z,4.20
2023-03-05T00:38:34.946Z,4.20
2023-03-05T00:41:02.594Z,4.20
2023-03-05T00:43:30.055Z,4.10
2023-03-05T00:45:56.709Z,4.20
2023-03-05T00:48:23.406Z,4.10
2023-03-05T00:50:50.105Z,4.10
2023-03-05T00:53:16.838Z,4.10
2023-03-05T00:55:43.588Z,4.10
2023-03-05T00:58:10.285Z,4.10
2023-03-05T01:00:37.169Z,4.10
2023-03-05T01:03:05.671Z,4.00
2023-03-05T01:05:32.362Z,4.00
2023-03-05T01:07:59.038Z,4.00
2023-03-05T01:10:33.337Z,4.00
2023-03-05T01:13:00.010Z,4.00
2023-03-05T01:15:26.818Z,4.00
2023-03-05T01:17:53.776Z,4.00
2023-03-05T01:20:22.387Z,3.90
2023-03-05T01:22:49.751Z,3.90
2023-03-05T01:25:17.634Z,3.90
2023-03-05T01:27:44.768Z,3.90
2023-03-05T01:30:15.362Z,3.80
2023-03-05T01:32:42.798Z,3.80
2023-03-05T01:35:16.895Z,3.80
2023-03-05T01:37:44.013Z,3.70
2023-03-05T01:40:13.873Z,3.70
2023-03-05T01:42:40.539Z,3.70
2023-03-05T01:45:15.868Z,3.60
2023-03-05T01:47:43.436Z,3.60
2023-03-05T01:50:20.059Z,3.60
2023-03-05T01:52:54.063Z,3.60
2023-03-05T01:55:24.253Z,3.50
2023-03-05T01:58:01.129Z,3.50
2023-03-05T02:00:46.533Z,3.50
2023-03-05T02:03:14.321Z,3.50
2023-03-05T02:05:44.262Z,3.50
2023-03-05T02:08:15.996Z,3.40
2023-03-05T02:10:46.796Z,3.40
2023-03-05T02:13:19.853Z,3.40
2023-03-05T02:15:47.608Z,3.40
2023-03-05T02:18:14.265Z,3.40
2023-03-05T02:20:56.432Z,3.40
2023-03-05T02:23:27.389Z,3.40
2023-03-05T02:25:54.765Z,3.50
2023-03-05T02:28:47.109Z,3.40
2023-03-05T02:31:18.532Z,3.50
2023-03-05T02:33:45.967Z,3.50
2023-03-05T02:36:12.934Z,3.60
2023-03-05T02:38:41.148Z,3.60
2023-03-05T02:41:08.237Z,3.60
2023-03-05T02:43:37.564Z,3.70
2023-03-05T02:46:05.012Z,3.70
2023-03-05T02:48:36.877Z,3.70
2023-03-05T02:51:05.561Z,3.60
2023-03-05T02:53:32.369Z,3.60
2023-03-05T02:55:59.038Z,3.70
2023-03-05T02:58:25.633Z,3.60
2023-03-05T03:00:52.282Z,3.70
2023-03-05T03:03:18.982Z,3.60
2023-03-05T03:05:45.612Z,3.60
2023-03-05T03:08:12.233Z,3.60
2023-03-05T03:10:39.063Z,3.60
2023-03-05T03:13:05.621Z,3.60
2023-03-05T03:15:33.343Z,3.60
2023-03-05T03:18:00.063Z,3.60
2023-03-05T03:20:27.211Z,3.60
2023-03-05T03:22:53.873Z,3.60
2023-03-05T03:25:22.987Z,3.50
2023-03-05T03:27:49.712Z,3.50
2023-03-05T03:30:16.660Z,3.50
2023-03-05T03:32:43.595Z,3.50
2023-03-05T03:35:11.350Z,3.50
2023-03-05T03:37:38.440Z,3.40
2023-03-05T03:40:06.607Z,3.40
2023-03-05T03:42:33.348Z,3.40
2023-03-05T03:45:02.079Z,3.50
2023-03-05T03:47:30.674Z,3.50
2023-03-05T03:49:58.688Z,3.50
2023-03-05T03:52:28.572Z,3.40
2023-03-05T03:55:01.364Z,3.40
2023-03-05T03:57:36.942Z,3.40
2023-03-05T04:00:06.915Z,3.40
2023-03-05T04:02:33.883Z,3.40
2023-03-05T04:05:00.540Z,3.40
2023-03-05T04:07:27.170Z,3.40
2023-03-05T04:09:54.142Z,3.40
2023-03-05T04:12:21.155Z,3.30
2023-03-05T04:14:49.057Z,3.30
2023-03-05T04:17:15.966Z,3.30
2023-03-05T04:19:43.108Z,3.30
2023-03-05T04:22:17.448Z,3.30
2023-03-05T04:24:44.474Z,3.30
2023-03-05T04:27:11.414Z,3.30
2023-03-05T04:29:38.225Z,3.30
2023-03-05T04:32:05.538Z,3.30
2023-03-05T04:34:33.102Z,3.30
2023-03-05T04:36:59.818Z,3.20
2023-03-05T04:39:29.138Z,3.20
2023-03-05T04:41:55.736Z,3.20
2023-03-05T04:44:23.197Z,3.20
2023-03-05T04:46:50.036Z,3.20
2023-03-05T04:49:16.643Z,3.20
2023-03-05T04:51:43.238Z,3.20
2023-03-05T04:54:14.620Z,3.20
2023-03-05T04:56:41.250Z,3.20
2023-03-05T04:59:07.801Z,3.20
2023-03-05T05:01:35.314Z,3.10
2023-03-05T05:04:02.158Z,3.10
2023-03-05T05:06:28.736Z,3.10
2023-03-05T05:08:55.462Z,3.00
2023-03-05T05:11:22.037Z,2.90
2023-03-05T05:13:48.595Z,2.90
2023-03-05T05:16:16.137Z,2.90
2023-03-05T05:18:42.759Z,2.90
2023-03-05T05:21:12.523Z,2.80
2023-03-05T05:23:39.354Z,2.80
2023-03-05T05:26:09.727Z,2.80
2023-03-05T05:28:38.314Z,2.80
2023-03-05T05:31:11.145Z,2.80
2023-03-05T05:33:38.249Z,2.80
2023-03-05T05:36:08.696Z,2.80
2023-03-05T05:38:35.318Z,2.70
2023-03-05T05:41:04.384Z,2.70
2023-03-05T05:43:34.146Z,2.70
2023-03-05T05:46:04.170Z,2.80
2023-03-05T05:48:33.080Z,2.70
2023-03-05T05:51:00.344Z,2.80
2023-03-05T05:53:26.996Z,2.80
2023-03-05T05:55:53.616Z,2.80
2023-03-05T05:58:20.402Z,2.80
2023-03-05T06:00:47.057Z,2.80
2023-03-05T06:03:14.218Z,2.80
2023-03-05T06:05:42.548Z,2.80
2023-03-05T06:08:10.103Z,2.80
2023-03-05T06:10:36.749Z,2.80
2023-03-05T06:13:03.334Z,2.90
2023-03-05T06:15:30.682Z,2.90
2023-03-05T06:17:59.907Z,2.90
2023-03-05T06:20:27.732Z,2.90
2023-03-05T06:22:55.226Z,3.00
2023-03-05T06:25:21.983Z,3.00
2023-03-05T06:27:48.538Z,3.00
2023-03-05T06:30:15.401Z,3.00
2023-03-05T06:32:42.037Z,3.00
2023-03-05T06:35:09.026Z,3.10
2023-03-05T06:37:36.493Z,3.10
2023-03-05T06:40:03.442Z,3.10
2023-03-05T06:42:30.027Z,3.10
2023-03-05T06:44:56.606Z,3.10
2023-03-05T06:47:23.169Z,3.10
2023-03-05T06:49:54.763Z,3.20
2023-03-05T06:52:21.334Z,3.20
2023-03-05T06:54:50.702Z,3.20
2023-03-05T06:57:17.317Z,3.30
2023-03-05T06:59:43.916Z,3.30
2023-03-05T07:02:12.207Z,3.30
2023-03-05T07:04:39.115Z,3.30
2023-03-05T07:07:06.953Z,3.40
2023-03-05T07:09:33.552Z,3.40
2023-03-05T07:12:00.152Z,3.50
2023-03-05T07:14:26.738Z,3.50
2023-03-05T07:16:53.347Z,3.50
2023-03-05T07:19:20.067Z,3.50
2023-03-05T07:21:47.369Z,3.60
2023-03-05T07:24:14.237Z,3.60
2023-03-05T07:26:40.849Z,3.60
2023-03-05T07:29:07.457Z,3.60
2023-03-05T07:31:34.200Z,3.70
2023-03-05T07:34:02.760Z,3.70
2023-03-05T07:36:30.065Z,3.60
2023-03-05T07:38:56.819Z,3.60
2023-03-05T07:41:23.775Z,3.60
2023-03-05T07:43:53.704Z,3.60
2023-03-05T07:46:27.080Z,3.60
2023-03-05T07:48:54.694Z,3.60
2023-03-05T07:51:23.952Z,3.60
2023-03-05T07:53:52.313Z,3.60
2023-03-05T07:56:36.836Z,3.70
2023-03-05T07:59:08.606Z,3.70
2023-03-05T08:01:35.596Z,3.70
2023-03-05T08:04:03.882Z,3.80
2023-03-05T08:06:30.971Z,3.80
2023-03-05T08:08:58.616Z,3.60
2023-03-05T08:11:26.055Z,3.90
2023-03-05T08:13:52.647Z,3.90
2023-03-05T08:16:21.460Z,3.90
2023-03-05T08:18:49.796Z,3.80
2023-03-05T08:21:26.826Z,3.90
2023-03-05T08:23:53.471Z,4.00
2023-03-05T08:26:23.521Z,4.00
2023-03-05T08:28:51.020Z,4.10
2023-03-05T08:31:21.407Z,4.30
2023-03-05T08:33:50.325Z,4.30
2023-03-05T08:36:17.260Z,4.40
2023-03-05T08:38:44.661Z,4.40
2023-03-05T08:41:11.320Z,4.40
2023-03-05T08:43:38.279Z,4.40
2023-03-05T08:46:05.582Z,4.50
2023-03-05T08:48:32.724Z,4.60
2023-03-05T08:51:16.821Z,4.50
2023-03-05T08:53:45.494Z,4.50
2023-03-05T08:56:12.392Z,4.50
2023-03-05T08:58:39.348Z,4.60
2023-03-05T09:01:06.662Z,4.50
2023-03-05T09:03:33.604Z,4.40
2023-03-05T09:06:06.621Z,4.50
2023-03-05T09:08:34.084Z,4.50
2023-03-05T09:11:06.493Z,4.50
2023-03-05T09:13:33.838Z,4.50
2023-03-05T09:16:08.130Z,4.50
2023-03-05T09:18:36.561Z,4.50
2023-03-05T09:21:15.745Z,4.50
2023-03-05T09:23:45.081Z,4.40
2023-03-05T09:26:13.017Z,4.50
2023-03-05T09:28:40.607Z,4.40
2023-03-05T09:31:09.352Z,4.40
2023-03-05T09:33:37.336Z,4.50
2023-03-05T09:36:26.285Z,4.60
2023-03-05T09:38:54.013Z,4.70
2023-03-05T09:41:30.091Z,4.80
2023-03-05T09:44:37.518Z,4.90
2023-03-05T09:47:32.510Z,5.00
2023-03-05T09:50:19.764Z,5.10
2023-03-05T09:52:55.489Z,5.20
2023-03-05T09:55:40.827Z,5.20
2023-03-05T09:58:34.189Z,5.20
2023-03-05T10:01:36.261Z,5.30
2023-03-05T10:04:08.755Z,5.40
2023-03-05T10:07:08.933Z,5.50
2023-03-05T10:09:47.369Z,5.70
2023-03-05T10:12:42.174Z,5.70
2023-03-05T10:15:15.900Z,5.70
2023-03-05T10:18:27.597Z,5.70
2023-03-05T10:21:49.443Z,5.70
2023-03-05T10:24:36.389Z,5.70
2023-03-05T10:27:11.390Z,5.80
2023-03-05T10:30:03.287Z,6.00
2023-03-05T10:33:26.418Z,6.00
2023-03-05T10:36:19.330Z,6.00
2023-03-05T10:39:42.412Z,5.90
2023-03-05T10:43:06.868Z,6.00
2023-03-05T10:45:40.422Z,6.10
2023-03-05T10:48:40.677Z,6.30
2023-03-05T10:51:20.874Z,6.50
2023-03-05T10:53:56.698Z,6.50
2023-03-05T10:56:26.801Z,6.50
2023-03-05T10:58:54.321Z,6.70
2023-03-05T11:01:26.534Z,6.60
2023-03-05T11:04:06.091Z,6.70
2023-03-05T11:06:40.188Z,6.60
2023-03-05T11:09:20.587Z,6.50
2023-03-05T11:12:14.498Z,6.60
2023-03-05T11:14:48.771Z,6.50
2023-03-05T11:17:30.669Z,6.50
2023-03-05T11:20:27.276Z,6.40
2023-03-05T11:23:19.815Z,6.40
2023-03-05T11:25:54.973Z,6.20
2023-03-05T11:28:57.280Z,6.00
2023-03-05T11:31:28.718Z,5.90
2023-03-05T11:34:23.788Z,5.80
2023-03-05T11:36:53.367Z,5.80
2023-03-05T11:39:30.187Z,5.60
2023-03-05T11:42:02.155Z,5.60
2023-03-05T11:44:46.589Z,5.50
2023-03-05T11:47:47.826Z,5.50
2023-03-05T11:50:24.545Z,5.60
2023-03-05T11:53:22.418Z,5.50
2023-03-05T11:56:01.642Z,5.30
2023-03-05T11:58:35.894Z,5.30
2023-03-05T12:01:06.964Z,5.40
2023-03-05T12:03:36.949Z,5.50
2023-03-05T12:06:39.026Z,5.70
2023-03-05T12:09:46.600Z,5.80
2023-03-05T12:12:49.016Z,6.10
2023-03-05T12:15:18.649Z,6.40
2023-03-05T12:18:24.512Z,6.60
2023-03-05T12:21:14.824Z,6.60
2023-03-05T12:24:01.242Z,6.70
2023-03-05T12:26:52.586Z,6.70
2023-03-05T12:29:54.227Z,6.60
2023-03-05T12:32:31.303Z,6.50
2023-03-05T12:35:25.897Z,6.30
2023-03-05T12:37:52.488Z,6.20
2023-03-05T12:40:27.092Z,5.90
2023-03-05T12:43:00.700Z,5.80
2023-03-05T12:45:37.776Z,5.70
2023-03-05T12:48:10.491Z,5.60
2023-03-05T12:50:40.123Z,5.50
2023-03-05T12:53:06.918Z,5.50
2023-03-05T12:55:48.382Z,5.50
2023-03-05T12:58:48.324Z,5.40
2023-03-05T13:01:50.348Z,5.40
2023-03-05T13:04:24.667Z,5.40
2023-03-05T13:07:14.323Z,5.60
2023-03-05T13:09:52.210Z,5.70
2023-03-05T13:12:19.046Z,5.80
2023-03-05T13:15:04.094Z,5.80
2023-03-05T13:17:38.028Z,5.80
2023-03-05T13:20:45.877Z,5.80
2023-03-05T13:23:29.357Z,5.70
2023-03-05T13:26:09.763Z,5.80
2023-03-05T13:28:39.145Z,5.80
2023-03-05T13:31:18.944Z,5.80
2023-03-05T13:33:58.957Z,5.90
2023-03-05T13:36:27.116Z,6.00
2023-03-05T13:38:54.286Z,6.10
2023-03-05T13:41:27.650Z,6.30
2023-03-05T13:43:56.821Z,6.30
2023-03-05T13:46:30.391Z,6.30
2023-03-05T13:49:17.114Z,6.40
2023-03-05T13:51:48.407Z,6.40
2023-03-05T13:54:17.703Z,6.40
2023-03-05T13:56:56.383Z,6.20
2023-03-05T13:59:28.866Z,6.20
2023-03-05T14:01:58.086Z,6.00
2023-03-05T14:04:34.411Z,5.80
2023-03-05T14:07:38.446Z,5.70
2023-03-05T14:10:29.274Z,5.70
2023-03-05T14:12:57.716Z,5.70
2023-03-05T14:15:28.870Z,5.60
2023-03-05T14:18:11.848Z,5.60
2023-03-05T14:20:41.210Z,5.60
2023-03-05T14:23:42.813Z,5.60
2023-03-05T14:26:31.195Z,5.40
2023-03-05T14:29:03.797Z,5.30
2023-03-05T14:31:53.844Z,5.30
2023-03-05T14:34:36.557Z,5.20
2023-03-05T14:37:31.374Z,5.20
2023-03-05T14:40:06.166Z,5.10
2023-03-05T14:42:49.588Z,4.90
2023-03-05T14:45:26.786Z,4.90
2023-03-05T14:47:56.813Z,4.80
2023-03-05T14:50:28.485Z,4.80
2023-03-05T14:53:00.488Z,4.70
2023-03-05T14:55:31.737Z,4.70
2023-03-05T14:58:07.322Z,4.50
2023-03-05T15:00:33.939Z,4.50
2023-03-05T15:03:00.708Z,4.50
2023-03-05T15:05:27.537Z,4.40
2023-03-05T15:07:54.256Z,4.30
2023-03-05T15:10:24.869Z,4.20
2023-03-05T15:12:53.075Z,4.20
2023-03-05T15:15:21.164Z,4.20
2023-03-05T15:17:54.503Z,4.20
2023-03-05T15:20:25.399Z,4.10
2023-03-05T15:22:52.888Z,4.20
2023-03-05T15:25:22.198Z,4.20
2023-03-05T15:27:50.706Z,4.20
2023-03-05T15:30:26.749Z,4.20
2023-03-05T15:32:55.314Z,4.20
2023-03-05T15:35:23.379Z,4.20
2023-03-05T15:37:50.649Z,4.10
2023-03-05T15:40:17.634Z,4.10
2023-03-05T15:42:44.335Z,4.00
2023-03-05T15:45:11.093Z,4.00
2023-03-05T15:47:37.750Z,4.00
2023-03-05T15:50:05.572Z,4.00
2023-03-05T15:52:32.378Z,4.00
2023-03-05T15:55:01.110Z,4.00
2023-03-05T15:57:28.370Z,4.00
2023-03-05T15:59:56.100Z,4.00
2023-03-05T16:02:24.595Z,4.00
2023-03-05T16:04:51.210Z,4.00
2023-03-05T16:07:18.100Z,3.90
2023-03-05T16:09:49.409Z,3.90
2023-03-05T16:12:40.676Z,3.90
2023-03-05T16:15:14.065Z,3.90
2023-03-05T16:17:44.031Z,3.90
2023-03-05T16:20:12.302Z,3.90
2023-03-05T16:22:39.342Z,3.80
2023-03-05T16:25:06.617Z,3.80
2023-03-05T16:27:33.872Z,3.70
2023-03-05T16:30:00.537Z,3.70
2023-03-05T16:32:27.281Z,3.70
2023-03-05T16:34:53.927Z,3.70
2023-03-05T16:37:23.406Z,3.70
2023-03-05T16:39:50.396Z,3.70
2023-03-05T16:42:17.559Z,3.70
2023-03-05T16:44:45.204Z,3.70
2023-03-05T16:47:19.262Z,3.70
2023-03-05T16:49:45.875Z,3.70
2023-03-05T16:52:18.710Z,3.70
2023-03-05T16:54:46.660Z,3.60
2023-03-05T16:57:13.272Z,3.60
2023-03-05T16:59:40.801Z,3.60
2023-03-05T17:02:08.047Z,3.60
2023-03-05T17:04:34.887Z,3.60
2023-03-05T17:07:03.358Z,3.60
2023-03-05T17:09:30.970Z,3.50
2023-03-05T17:12:00.767Z,3.50
2023-03-05T17:14:27.573Z,3.50
2023-03-05T17:16:54.224Z,3.50
2023-03-05T17:19:20.899Z,3.50
2023-03-05T17:21:50.937Z,3.50
2023-03-05T17:24:20.107Z,3.40
2023-03-05T17:26:48.043Z,3.50
2023-03-05T17:29:14.681Z,3.50
2023-03-05T17:31:41.519Z,3.50
2023-03-05T17:34:08.236Z,3.50
2023-03-05T17:36:34.871Z,3.50
2023-03-05T17:39:01.703Z,3.50
2023-03-05T17:41:28.269Z,3.50
2023-03-05T17:43:54.923Z,3.50
2023-03-05T17:46:21.496Z,3.50
2023-03-05T17:48:48.425Z,3.50
2023-03-05T17:51:16.578Z,3.50
2023-03-05T17:53:43.341Z,3.40
2023-03-05T17:56:11.526Z,3.50
2023-03-05T17:58:38.567Z,3.50
2023-03-05T18:01:06.874Z,3.50
2023-03-05T18:03:34.488Z,3.50
2023-03-05T18:06:01.247Z,3.50
2023-03-05T18:08:27.933Z,3.40
2023-03-05T18:10:54.724Z,3.40
2023-03-05T18:13:21.390Z,3.40
2023-03-05T18:15:48.061Z,3.40
2023-03-05T18:18:17.834Z,3.40
2023-03-05T18:20:45.345Z,3.40
2023-03-05T18:23:12.429Z,3.40
2023-03-05T18:25:39.171Z,3.40
2023-03-05T18:28:12.336Z,3.40
2023-03-05T18:30:40.772Z,3.40
2023-03-05T18:33:09.335Z,3.40
2023-03-05T18:35:36.745Z,3.50
2023-03-05T18:38:03.410Z,3.40
2023-03-05T18:40:32.586Z,3.50
2023-03-05T18:43:01.335Z,3.40
2023-03-05T18:45:30.515Z,3.50
2023-03-05T18:47:57.245Z,3.40
2023-03-05T18:50:27.141Z,3.50
2023-03-05T18:52:53.937Z,3.50
2023-03-05T18:55:25.852Z,3.40
2023-03-05T18:57:53.204Z,3.40
2023-03-05T19:00:27.109Z,3.40
2023-03-05T19:02:55.178Z,3.40
2023-03-05T19:05:22.590Z,3.40
2023-03-05T19:07:49.362Z,3.40
2023-03-05T19:10:17.504Z,3.40
2023-03-05T19:13:35.770Z,3.40
2023-03-05T19:16:20.492Z,3.40
2023-03-05T19:19:14.909Z,3.30
2023-03-05T19:21:43.792Z,3.40
2023-03-05T19:24:11.308Z,3.40
2023-03-05T19:26:39.135Z,3.40
2023-03-05T19:29:07.116Z,3.30
2023-03-05T19:31:34.533Z,3.40
2023-03-05T19:34:01.666Z,3.40
2023-03-05T19:36:28.320Z,3.40
2023-03-05T19:38:55.171Z,3.30
2023-03-05T19:41:22.101Z,3.30
2023-03-05T19:43:49.754Z,3.30
2023-03-05T19:46:17.460Z,3.30
2023-03-05T19:48:44.742Z,3.30
2023-03-05T19:51:21.433Z,3.30
2023-03-05T19:53:48.976Z,3.40
2023-03-05T19:56:17.109Z,3.30
2023-03-05T19:58:45.439Z,3.30
2023-03-05T20:01:17.795Z,3.40
2023-03-05T20:03:47.580Z,3.30
2023-03-05T20:06:15.272Z,3.30
2023-03-05T20:08:42.101Z,3.40
2023-03-05T20:11:12.157Z,3.30
2023-03-05T20:13:39.531Z,3.30
2023-03-05T20:16:17.029Z,3.40
2023-03-05T20:18:44.760Z,3.40
2023-03-05T20:21:12.116Z,3.40
2023-03-05T20:23:39.324Z,3.40
2023-03-05T20:26:06.571Z,3.40
2023-03-05T20:28:34.028Z,3.40
2023-03-05T20:31:02.036Z,3.40
2023-03-05T20:33:29.526Z,3.40
2023-03-05T20:35:56.490Z,3.30
2023-03-05T20:38:29.366Z,3.30
2023-03-05T20:40:59.536Z,3.40
2023-03-05T20:43:29.557Z,3.30
2023-03-05T20:45:58.489Z,3.30
2023-03-05T20:48:33.074Z,3.30
2023-03-05T20:51:15.347Z,3.30
2023-03-05T20:53:42.570Z,3.30
2023-03-05T20:56:09.213Z,3.30
2023-03-05T20:58:35.860Z,3.30
2023-03-05T21:01:02.519Z,3.30
2023-03-05T21:03:29.166Z,3.30
2023-03-05T21:05:57.001Z,3.30
2023-03-05T21:08:24.402Z,3.30
2023-03-05T21:10:51.068Z,3.30
2023-03-05T21:13:17.973Z,3.30
2023-03-05T21:15:44.610Z,3.20
2023-03-05T21:18:11.328Z,3.20
2023-03-05T21:20:38.006Z,3.20
2023-03-05T21:23:04.639Z,3.20
2023-03-05T21:25:33.090Z,3.20
2023-03-05T21:28:02.295Z,3.20
2023-03-05T21:30:43.448Z,3.20
2023-03-05T21:33:17.326Z,3.20
2023-03-05T21:35:47.649Z,3.20
2023-03-05T21:38:14.450Z,3.20
2023-03-05T21:40:45.353Z,3.20
2023-03-05T21:43:12.867Z,3.20
2023-03-05T21:45:40.578Z,3.20
2023-03-05T21:48:08.404Z,3.20
2023-03-05T21:50:35.692Z,3.20
2023-03-05T21:53:02.972Z,3.20
2023-03-05T21:56:21.866Z,3.20
2023-03-05T21:58:48.787Z,3.20
2023-03-05T22:01:19.103Z,3.20
2023-03-05T22:03:46.112Z,3.20
2023-03-05T22:06:14.755Z,3.20
2023-03-05T22:08:41.787Z,3.20
2023-03-05T22:11:15.029Z,3.20
2023-03-05T22:13:42.214Z,3.20
2023-03-05T22:16:09.562Z,3.10
2023-03-05T22:18:39.222Z,3.10
2023-03-05T22:21:16.601Z,3.10
2023-03-05T22:23:43.373Z,3.10
2023-03-05T22:26:09.982Z,3.10
2023-03-05T22:28:38.758Z,3.10
2023-03-05T22:31:09.943Z,3.10
2023-03-05T22:33:37.022Z,3.10
2023-03-05T22:36:12.052Z,3.00
2023-03-05T22:38:42.802Z,3.00
2023-03-05T22:41:12.416Z,3.10
2023-03-05T22:43:39.823Z,3.10
2023-03-05T22:46:32.514Z,3.00
2023-03-05T22:48:59.088Z,3.10
2023-03-05T22:51:25.678Z,3.00
2023-03-05T22:53:53.451Z,3.00
2023-03-05T22:56:20.992Z,3.00
2023-03-05T22:58:48.181Z,3.00
2023-03-05T23:01:25.809Z,3.00
2023-03-05T23:04:54.848Z,3.00
2023-03-05T23:07:26.229Z,3.00
2023-03-05T23:09:59.710Z,3.00
2023-03-05T23:12:33.550Z,3.00
2023-03-05T23:15:02.081Z,3.00
2023-03-05T23:17:28.854Z,3.00
2023-03-05T23:19:55.498Z,3.00
2023-03-05T23:22:22.202Z,3.00
2023-03-05T23:24:48.777Z,3.00
2023-03-05T23:27:17.520Z,3.00
2023-03-05T23:30:21.831Z,3.00
2023-03-05T23:32:57.155Z,3.00
2023-03-05T23:35:25.523Z,3.00
2023-03-05T23:37:56.640Z,3.10
2023-03-05T23:40:33.255Z,3.10
2023-03-05T23:43:00.235Z,3.10
2023-03-05T23:45:28.177Z,3.10
2023-03-05T23:47:55.426Z,2.90
2023-03-05T23:50:26.147Z,2.90
2023-03-05T23:52:54.300Z,2.80
2023-03-05T23:55:39.437Z,2.80
2023-03-05T23:58:07.155Z,3.00
